Time;durP1;ratioP1;P1;durP2;ratioP2;P2;SDS_P1;SDS_P2;PMS_P1;PMS_P2;Temp;Humidity;BMP_temperature;BMP_pressure;BME280_temperature;BME280_humidity;BME280_pressure;Samples;Min_cycle;Max_cycle;Signal;HPM_P1;HPM_P2
2023/03/06 00:00:41;;;;;;;16.10;10.67;;;4.60;79.20;;;;;;5012472;28;20443;-74
2023/03/06 00:03:07;;;;;;;17.90;9.50;;;4.60;79.80;;;;;;5012179;28;20460;-72
2023/03/06 00:05:32;;;;;;;13.15;8.70;;;4.60;76.70;;;;;;5012593;28;20472;-71
2023/03/06 00:07:58;;;;;;;10.30;8.20;;;4.60;76.70;;;;;;5013141;28;20741;-72
2023/03/06 00:10:26;;;;;;;12.33;8.90;;;4.60;75.00;;;;;;5013560;28;20395;-72
2023/03/06 00:12:54;;;;;;;12.48;8.82;;;4.60;75.80;;;;;;5014097;28;20397;-74
2023/03/06 00:15:20;;;;;;;14.55;10.05;;;4.50;76.40;;;;;;5018832;28;20452;-74
2023/03/06 00:17:46;;;;;;;13.48;9.38;;;4.50;78.60;;;;;;5017550;28;20420;-72
2023/03/06 00:20:13;;;;;;;14.45;10.23;;;4.50;79.70;;;;;;5017667;28;20906;-72
2023/03/06 00:22:39;;;;;;;15.70;11.07;;;4.40;81.60;;;;;;5013918;28;20387;-72
2023/03/06 00:25:05;;;;;;;15.80;10.60;;;4.50;81.80;;;;;;5017537;28;20459;-72
2023/03/06 00:27:31;;;;;;;15.40;11.00;;;4.40;82.70;;;;;;5017502;28;20401;-73
2023/03/06 00:29:58;;;;;;;14.75;11.27;;;4.50;81.80;;;;;;5014076;28;20399;-72
2023/03/06 00:32:24;;;;;;;20.73;13.05;;;4.40;82.30;;;;;;5013270;28;20447;-72
2023/03/06 00:34:51;;;;;;;26.33;14.32;;;4.50;84.30;;;;;;5012471;28;20388;-73
2023/03/06 00:37:17;;;;;;;24.00;14.57;;;4.60;82.00;;;;;;5011950;28;20389;-74
2023/03/06 00:39:43;;;;;;;25.75;14.93;;;4.60;81.90;;;;;;5011973;28;20494;-74
2023/03/06 00:42:09;;;;;;;24.90;15.07;;;4.60;82.30;;;;;;5012124;28;20854;-72
2023/03/06 00:44:34;;;;;;;28.48;16.48;;;4.60;83.40;;;;;;5012074;28;20862;-73
2023/03/06 00:47:00;;;;;;;31.15;16.10;;;4.50;83.60;;;;;;5012411;28;20440;-72
2023/03/06 00:49:25;;;;;;;29.08;15.77;;;4.60;82.10;;;;;;5012929;28;20472;-74
2023/03/06 00:51:51;;;;;;;25.05;15.23;;;4.60;80.80;;;;;;5034653;28;20400;-72
2023/03/06 00:54:16;;;;;;;26.92;15.50;;;4.60;81.80;;;;;;5034703;28;20405;-71
2023/03/06 00:56:42;;;;;;;29.67;16.33;;;4.60;81.90;;;;;;5033337;28;20878;-71
2023/03/06 00:59:08;;;;;;;27.50;15.40;;;4.50;84.00;;;;;;5022634;28;20917;-73
2023/03/06 01:01:34;;;;;;;26.05;15.25;;;4.60;83.50;;;;;;5011578;28;20395;-74
2023/03/06 01:03:59;;;;;;;24.00;14.55;;;4.70;80.00;;;;;;5011628;28;20472;-74
2023/03/06 01:06:25;;;;;;;27.70;14.80;;;4.70;78.30;;;;;;5011573;28;20442;-73
2023/03/06 01:08:50;;;;;;;24.70;15.23;;;4.70;79.60;;;;;;5011404;28;20474;-73
2023/03/06 01:11:16;;;;;;;26.80;16.00;;;4.60;79.70;;;;;;5011158;28;20385;-73
2023/03/06 01:13:43;;;;;;;26.70;15.37;;;4.60;78.60;;;;;;5011553;28;20396;-73
2023/03/06 01:16:11;;;;;;;24.80;16.63;;;4.60;75.40;;;;;;5011337;28;20799;-74
2023/03/06 01:18:37;;;;;;;28.95;17.65;;;4.50;76.10;;;;;;5011145;28;20886;-72
2023/03/06 01:21:03;;;;;;;30.57;18.57;;;4.40;75.70;;;;;;5011104;28;20731;-72
2023/03/06 01:23:29;;;;;;;30.50;17.83;;;4.20;77.70;;;;;;5011212;28;20412;-74
2023/03/06 01:25:55;;;;;;;30.00;18.40;;;4.20;80.70;;;;;;5011081;28;20411;-74
2023/03/06 01:28:21;;;;;;;34.28;20.13;;;4.10;81.70;;;;;;5011502;28;20492;-74
2023/03/06 01:30:50;;;;;;;32.55;18.80;;;4.10;84.10;;;;;;5011570;28;20467;-74
2023/03/06 01:33:15;;;;;;;29.40;18.87;;;4.10;85.40;;;;;;5011642;28;20800;-74
2023/03/06 01:35:41;;;;;;;31.25;18.58;;;4.10;85.80;;;;;;5016334;28;20399;-73
2023/03/06 01:38:06;;;;;;;33.55;19.60;;;4.10;87.30;;;;;;5028182;28;20727;-72
2023/03/06 01:40:34;;;;;;;28.33;18.88;;;4.10;85.30;;;;;;5028443;28;20474;-74
2023/03/06 01:43:34;;;;;;;32.90;19.20;;;4.20;83.50;;;;;;5023452;28;20376;-73
2023/03/06 01:46:21;;;;;;;33.50;19.48;;;4.20;84.60;;;;;;5000467;28;20412;-72
2023/03/06 01:48:49;;;;;;;33.10;20.80;;;4.20;85.50;;;;;;5021125;28;20419;-73
2023/03/06 01:51:15;;;;;;;36.17;21.13;;;4.20;85.90;;;;;;5010606;28;20727;-74
2023/03/06 01:53:42;;;;;;;37.42;20.98;;;4.20;87.10;;;;;;5010727;28;20421;-71
2023/03/06 01:56:09;;;;;;;41.85;21.67;;;4.10;88.80;;;;;;5011158;28;20403;-72
2023/03/06 01:58:35;;;;;;;37.50;19.98;;;4.10;88.90;;;;;;5015487;28;20435;-72
2023/03/06 02:01:01;;;;;;;40.38;22.33;;;4.20;90.00;;;;;;5022288;28;20416;-73
2023/03/06 02:03:27;;;;;;;32.23;20.30;;;4.20;88.70;;;;;;5019006;28;20412;-74
2023/03/06 02:05:54;;;;;;;36.47;21.30;;;4.20;88.60;;;;;;5011649;28;20387;-73
2023/03/06 02:08:22;;;;;;;36.28;21.10;;;4.30;88.20;;;;;;5013967;28;20384;-74
2023/03/06 02:11:12;;;;;;;34.15;19.50;;;4.40;86.50;;;;;;5014495;28;20396;-72
2023/03/06 02:13:38;;;;;;;40.83;21.75;;;4.40;84.50;;;;;;5014378;28;20384;-72
2023/03/06 02:16:05;;;;;;;35.58;20.45;;;4.30;88.00;;;;;;5014368;28;20393;-72
2023/03/06 02:18:32;;;;;;;31.50;19.00;;;4.40;87.20;;;;;;5013875;28;20456;-72
2023/03/06 02:21:01;;;;;;;35.42;20.20;;;4.40;85.10;;;;;;5013680;28;20803;-73
2023/03/06 02:23:32;;;;;;;33.55;20.17;;;4.40;84.00;;;;;;5014069;28;20380;-73
2023/03/06 02:26:00;;;;;;;39.53;21.25;;;4.50;83.60;;;;;;5014089;28;20790;-73
2023/03/06 02:28:25;;;;;;;36.17;22.17;;;4.50;83.50;;;;;;5014109;28;20404;-72
2023/03/06 02:30:53;;;;;;;41.23;22.50;;;4.40;83.30;;;;;;5014112;28;20399;-71
2023/03/06 02:33:22;;;;;;;38.78;21.90;;;4.40;84.80;;;;;;5014233;28;20522;-71
2023/03/06 02:35:59;;;;;;;38.38;22.27;;;4.50;82.20;;;;;;5013957;28;20405;-72
2023/03/06 02:38:31;;;;;;;36.67;22.63;;;4.50;80.40;;;;;;5012733;28;20818;-72
2023/03/06 02:40:57;;;;;;;35.60;22.43;;;4.40;83.10;;;;;;5013518;28;20789;-72
2023/03/06 02:43:30;;;;;;;37.45;22.90;;;4.40;84.00;;;;;;5015707;28;20365;-72
2023/03/06 02:45:56;;;;;;;35.97;22.38;;;4.50;83.20;;;;;;5017040;28;20388;-73
2023/03/06 02:48:21;;;;;;;41.77;23.30;;;4.50;81.90;;;;;;5016855;28;20434;-71
2023/03/06 02:50:47;;;;;;;45.25;23.08;;;4.50;82.30;;;;;;5014802;28;20392;-71
2023/03/06 02:53:15;;;;;;;40.65;23.38;;;4.50;81.00;;;;;;5013619;28;20901;-72
2023/03/06 02:55:41;;;;;;;41.10;24.50;;;4.40;82.40;;;;;;5012358;28;20776;-72
2023/03/06 02:58:07;;;;;;;44.40;25.92;;;4.40;82.70;;;;;;5013417;28;20977;-72
2023/03/06 03:00:33;;;;;;;39.27;23.10;;;4.40;83.80;;;;;;5013338;28;20409;-73
2023/03/06 03:02:59;;;;;;;42.97;25.05;;;4.30;83.10;;;;;;5013006;28;20775;-72
2023/03/06 03:05:24;;;;;;;43.00;24.33;;;4.30;83.30;;;;;;5013322;28;20414;-74
2023/03/06 03:07:50;;;;;;;44.00;24.57;;;4.30;85.00;;;;;;5013336;28;20389;-73
2023/03/06 03:10:15;;;;;;;43.22;24.98;;;4.20;85.00;;;;;;5013388;28;20420;-73
2023/03/06 03:12:41;;;;;;;40.38;22.60;;;4.20;84.50;;;;;;5013146;28;20466;-73
2023/03/06 03:15:08;;;;;;;42.70;24.60;;;4.20;85.30;;;;;;5013173;28;20442;-73
2023/03/06 03:17:39;;;;;;;41.97;24.27;;;4.20;86.40;;;;;;5011859;28;20491;-73
2023/03/06 03:20:08;;;;;;;49.15;24.75;;;4.20;86.00;;;;;;5012001;28;20812;-73
2023/03/06 03:22:33;;;;;;;42.45;23.35;;;4.20;85.30;;;;;;5011478;28;20446;-73
2023/03/06 03:24:59;;;;;;;44.55;24.77;;;4.30;84.90;;;;;;5012817;28;20392;-73
2023/03/06 03:27:24;;;;;;;47.72;24.42;;;4.30;84.10;;;;;;5012554;28;20407;-73
2023/03/06 03:29:50;;;;;;;43.60;24.23;;;4.30;84.10;;;;;;5012616;28;20389;-73
2023/03/06 03:32:16;;;;;;;40.37;24.63;;;4.30;85.40;;;;;;5012609;28;20397;-72
2023/03/06 03:34:41;;;;;;;39.93;22.03;;;4.30;84.60;;;;;;5012587;28;20480;-73
2023/03/06 03:37:07;;;;;;;42.28;24.38;;;4.30;84.20;;;;;;5013555;28;20388;-73
2023/03/06 03:39:33;;;;;;;43.42;22.48;;;4.30;84.50;;;;;;5012972;28;20408;-72
2023/03/06 03:41:59;;;;;;;38.37;21.10;;;4.30;82.30;;;;;;5013441;28;20758;-73
2023/03/06 03:44:24;;;;;;;39.60;21.67;;;4.30;81.50;;;;;;5026813;28;20383;-73
2023/03/06 03:46:50;;;;;;;35.38;20.60;;;4.20;82.10;;;;;;5026830;28;20435;-73
2023/03/06 03:49:16;;;;;;;43.07;19.80;;;4.20;82.90;;;;;;5027578;28;20409;-73
2023/03/06 03:51:41;;;;;;;38.47;20.70;;;4.20;82.60;;;;;;5024942;28;20396;-73
2023/03/06 03:54:07;;;;;;;39.67;21.73;;;4.20;82.40;;;;;;5015769;28;20389;-73
2023/03/06 03:56:33;;;;;;;33.63;20.30;;;4.20;83.40;;;;;;5013052;28;20746;-72
2023/03/06 03:58:58;;;;;;;32.97;19.87;;;4.20;81.90;;;;;;5012234;28;20404;-72
2023/03/06 04:01:24;;;;;;;40.50;21.20;;;4.20;80.00;;;;;;5012221;28;20419;-71
2023/03/06 04:03:50;;;;;;;36.95;21.10;;;4.10;81.40;;;;;;5012210;28;20377;-71
2023/03/06 04:06:15;;;;;;;34.70;19.83;;;4.20;82.70;;;;;;5012093;28;20464;-73
2023/03/06 04:08:41;;;;;;;36.53;21.40;;;4.20;82.50;;;;;;5011831;28;20895;-71
2023/03/06 04:11:07;;;;;;;35.07;20.17;;;4.20;81.00;;;;;;5011706;28;20785;-72
2023/03/06 04:13:32;;;;;;;39.43;21.37;;;4.20;82.50;;;;;;5012261;28;20793;-72
2023/03/06 04:15:58;;;;;;;40.25;21.90;;;4.30;80.70;;;;;;5012380;28;20392;-71
2023/03/06 04:18:24;;;;;;;35.08;20.55;;;4.20;80.80;;;;;;5011957;28;20377;-73
2023/03/06 04:20:51;;;;;;;37.85;21.98;;;4.30;80.20;;;;;;5011584;28;20412;-72
2023/03/06 04:23:17;;;;;;;35.55;20.90;;;4.30;80.10;;;;;;5011934;28;20377;-74
2023/03/06 04:25:44;;;;;;;37.53;21.52;;;4.30;81.00;;;;;;5012044;28;20434;-71
2023/03/06 04:28:10;;;;;;;45.33;21.70;;;4.30;78.70;;;;;;5011834;28;20393;-72
2023/03/06 04:30:36;;;;;;;38.40;22.23;;;4.40;78.70;;;;;;5010254;28;20401;-72
2023/03/06 04:33:02;;;;;;;43.73;22.90;;;4.30;80.10;;;;;;5011552;28;20472;-72
2023/03/06 04:35:28;;;;;;;44.58;23.15;;;4.30;79.90;;;;;;5011655;28;20536;-73
2023/03/06 04:37:54;;;;;;;40.83;22.70;;;4.40;79.00;;;;;;5011394;28;20415;-73
2023/03/06 04:40:22;;;;;;;38.50;23.45;;;4.30;79.70;;;;;;5011516;28;20409;-73
2023/03/06 04:42:48;;;;;;;40.92;24.02;;;4.40;78.80;;;;;;5011102;28;20387;-72
2023/03/06 04:45:14;;;;;;;43.60;25.20;;;4.40;78.70;;;;;;5011616;28;20463;-72
2023/03/06 04:47:41;;;;;;;54.35;25.50;;;4.40;78.10;;;;;;5011227;28;20392;-72
2023/03/06 04:50:07;;;;;;;49.40;25.80;;;4.30;77.60;;;;;;5011584;28;20396;-72
2023/03/06 04:52:33;;;;;;;51.67;26.08;;;4.30;79.00;;;;;;5011240;28;20403;-72
2023/03/06 04:54:58;;;;;;;50.67;26.90;;;4.30;80.20;;;;;;5011897;28;20388;-73
2023/03/06 04:57:24;;;;;;;53.43;27.50;;;4.30;80.80;;;;;;5011759;28;20878;-73
2023/03/06 04:59:50;;;;;;;48.40;26.50;;;4.30;81.40;;;;;;5011060;28;20491;-72
2023/03/06 05:02:16;;;;;;;51.47;28.02;;;4.30;81.90;;;;;;5010957;28;20882;-73
2023/03/06 05:04:42;;;;;;;53.65;27.98;;;4.20;83.50;;;;;;5011165;28;20397;-72
2023/03/06 05:07:08;;;;;;;55.23;27.87;;;4.20;83.70;;;;;;5009907;28;20948;-73
2023/03/06 05:09:34;;;;;;;50.47;28.83;;;4.20;85.10;;;;;;5013223;28;20385;-72
2023/03/06 05:12:00;;;;;;;52.22;28.10;;;4.30;83.20;;;;;;5011242;28;20392;-73
2023/03/06 05:14:31;;;;;;;54.37;29.70;;;4.30;80.80;;;;;;5026232;28;20396;-73
2023/03/06 05:16:56;;;;;;;59.33;29.52;;;4.30;80.90;;;;;;5011216;28;20397;-73
2023/03/06 05:19:22;;;;;;;47.30;27.95;;;4.30;81.10;;;;;;5011508;28;20500;-71
2023/03/06 05:21:48;;;;;;;56.22;29.45;;;4.20;82.10;;;;;;5011256;28;20849;-74
2023/03/06 05:24:14;;;;;;;51.95;28.98;;;4.30;82.60;;;;;;5012668;28;20385;-72
2023/03/06 05:26:40;;;;;;;50.45;28.00;;;4.30;82.10;;;;;;5010776;28;20397;-74
2023/03/06 05:29:05;;;;;;;55.57;28.30;;;4.30;80.70;;;;;;4994184;28;20420;-72
2023/03/06 05:31:31;;;;;;;50.10;27.53;;;4.20;80.80;;;;;;5012075;28;20479;-72
2023/03/06 05:33:57;;;;;;;49.57;28.00;;;4.10;81.50;;;;;;5011520;28;20427;-72
2023/03/06 05:36:23;;;;;;;52.30;27.93;;;4.00;80.90;;;;;;5012162;28;20454;-73
2023/03/06 05:38:49;;;;;;;50.22;27.60;;;3.90;82.70;;;;;;5010739;28;20688;-72
2023/03/06 05:41:15;;;;;;;54.03;27.47;;;3.90;83.40;;;;;;5010674;28;20408;-73
2023/03/06 05:43:40;;;;;;;50.53;27.98;;;3.90;83.10;;;;;;5015256;28;20813;-73
2023/03/06 05:46:06;;;;;;;50.28;26.92;;;4.00;82.20;;;;;;5015401;28;20450;-71
2023/03/06 05:48:33;;;;;;;51.97;28.10;;;3.90;82.40;;;;;;5015734;28;20866;-73
2023/03/06 05:51:01;;;;;;;53.67;28.05;;;3.80;84.30;;;;;;5015543;28;20801;-72
2023/03/06 05:53:28;;;;;;;51.83;27.98;;;3.80;85.50;;;;;;5015974;28;20381;-72
2023/03/06 05:56:02;;;;;;;48.72;26.92;;;3.80;84.80;;;;;;5017170;28;20391;-73
2023/03/06 05:58:30;;;;;;;52.63;28.42;;;3.80;85.00;;;;;;5018628;28;20381;-74
2023/03/06 06:00:56;;;;;;;52.78;29.15;;;3.80;84.50;;;;;;5020754;28;20781;-73
2023/03/06 06:03:22;;;;;;;53.53;28.95;;;3.70;84.80;;;;;;5022997;28;20392;-72
2023/03/06 06:05:48;;;;;;;56.22;28.27;;;3.70;86.20;;;;;;5018252;28;20742;-72
2023/03/06 06:08:14;;;;;;;54.58;29.75;;;3.80;86.00;;;;;;5015039;28;20396;-73
2023/03/06 06:10:39;;;;;;;54.23;28.60;;;3.80;85.90;;;;;;5015857;28;20412;-73
2023/03/06 06:13:05;;;;;;;52.97;28.03;;;3.80;84.00;;;;;;5016225;28;20384;-74
2023/03/06 06:15:31;;;;;;;53.05;27.98;;;3.80;84.20;;;;;;5016957;28;20396;-72
2023/03/06 06:17:57;;;;;;;56.20;28.95;;;3.70;84.80;;;;;;5016527;28;20392;-72
2023/03/06 06:20:23;;;;;;;53.33;28.55;;;3.70;85.20;;;;;;5016047;28;20434;-72
2023/03/06 06:22:49;;;;;;;57.58;29.52;;;3.70;86.30;;;;;;5016088;28;20381;-73
2023/03/06 06:25:15;;;;;;;54.50;29.27;;;3.80;85.60;;;;;;5018047;28;20385;-74
2023/03/06 06:27:41;;;;;;;54.85;29.80;;;3.80;85.30;;;;;;5016059;28;20397;-73
2023/03/06 06:30:09;;;;;;;55.08;31.67;;;3.80;86.20;;;;;;5016160;28;20451;-73
2023/03/06 06:32:35;;;;;;;52.13;28.50;;;3.90;86.60;;;;;;5016847;28;20388;-73
2023/03/06 06:35:02;;;;;;;54.03;29.67;;;4.00;85.30;;;;;;5016102;28;20389;-72
2023/03/06 06:37:28;;;;;;;58.38;30.00;;;3.90;85.60;;;;;;5014233;28;20388;-73
2023/03/06 06:39:53;;;;;;;56.73;29.63;;;4.00;84.90;;;;;;5014305;28;20474;-74
2023/03/06 06:42:19;;;;;;;50.47;27.93;;;4.20;79.50;;;;;;5023806;28;20397;-73
2023/03/06 06:44:44;;;;;;;46.80;25.10;;;4.30;75.90;;;;;;5024652;28;20567;-73
2023/03/06 06:47:10;;;;;;;50.63;26.70;;;4.30;73.00;;;;;;5014334;28;20593;-74
2023/03/06 06:49:36;;;;;;;51.42;27.33;;;4.30;74.20;;;;;;5013595;28;20436;-72
2023/03/06 06:52:02;;;;;;;50.90;26.30;;;4.30;74.00;;;;;;5021606;28;20407;-74
2023/03/06 06:54:27;;;;;;;54.00;26.70;;;4.30;73.00;;;;;;5023867;28;20397;-74
2023/03/06 06:56:53;;;;;;;50.00;26.65;;;4.40;70.40;;;;;;5013933;28;20455;-73
2023/03/06 06:59:22;;;;;;;55.67;27.85;;;4.40;70.50;;;;;;5013630;28;20413;-74
2023/03/06 07:01:48;;;;;;;51.35;26.95;;;4.50;70.00;;;;;;5015479;28;20397;-73
2023/03/06 07:04:14;;;;;;;48.33;27.50;;;4.50;68.30;;;;;;5028321;28;20752;-71
2023/03/06 07:06:40;;;;;;;52.60;26.97;;;4.50;68.00;;;;;;5030572;28;20861;-73
2023/03/06 07:09:06;;;;;;;55.37;27.13;;;4.50;68.90;;;;;;5005277;28;20483;-73
2023/03/06 07:11:32;;;;;;;53.97;28.30;;;4.50;68.30;;;;;;4991761;28;20382;-73
2023/03/06 07:13:57;;;;;;;56.63;27.48;;;4.50;67.10;;;;;;5005249;28;20886;-73
2023/03/06 07:16:23;;;;;;;59.15;29.27;;;4.60;67.90;;;;;;5013483;28;20427;-74
2023/03/06 07:18:48;;;;;;;55.07;29.00;;;4.60;66.20;;;;;;5012326;28;20393;-75
2023/03/06 07:21:14;;;;;;;54.73;28.30;;;4.60;66.10;;;;;;5011810;28;20858;-74
2023/03/06 07:23:40;;;;;;;53.30;28.50;;;4.60;67.50;;;;;;5011022;28;20487;-74
2023/03/06 07:26:05;;;;;;;50.05;26.67;;;4.60;67.40;;;;;;5003824;28;20403;-73
2023/03/06 07:28:32;;;;;;;52.17;28.02;;;4.70;66.20;;;;;;5012861;28;20400;-74
2023/03/06 07:30:57;;;;;;;48.05;26.60;;;4.70;64.70;;;;;;5010754;28;20405;-74
2023/03/06 07:33:23;;;;;;;52.47;27.13;;;4.70;64.50;;;;;;5010812;28;20395;-73
2023/03/06 07:35:48;;;;;;;47.03;24.23;;;4.70;64.40;;;;;;5018563;28;20478;-73
2023/03/06 07:38:14;;;;;;;54.30;25.40;;;4.70;63.70;;;;;;5029802;28;20406;-73
2023/03/06 07:40:40;;;;;;;53.20;26.47;;;4.70;64.10;;;;;;5030520;28;20403;-73
2023/03/06 07:43:06;;;;;;;45.37;24.40;;;4.80;63.80;;;;;;5030324;28;20387;-74
2023/03/06 07:45:32;;;;;;;44.67;23.88;;;4.80;62.70;;;;;;5030369;28;20561;-73
2023/03/06 07:47:57;;;;;;;43.03;22.80;;;4.80;61.00;;;;;;5030191;28;20410;-73
2023/03/06 07:50:23;;;;;;;43.45;22.45;;;4.80;61.70;;;;;;5029906;28;20943;-73
2023/03/06 07:52:49;;;;;;;42.63;22.13;;;4.90;59.70;;;;;;5024505;28;20448;-74
2023/03/06 07:55:16;;;;;;;41.85;22.75;;;4.80;60.70;;;;;;5010865;28;20397;-72
2023/03/06 07:57:41;;;;;;;42.15;22.20;;;4.80;61.20;;;;;;5010604;28;20393;-72
2023/03/06 08:00:12;;;;;;;46.90;22.90;;;4.90;62.40;;;;;;5013130;28;20417;-72
2023/03/06 08:02:37;;;;;;;46.55;22.92;;;5.00;60.40;;;;;;5010706;28;20806;-71
2023/03/06 08:05:03;;;;;;;40.00;22.87;;;5.00;59.90;;;;;;5010525;28;20381;-73
2023/03/06 08:07:29;;;;;;;48.83;25.10;;;5.00;59.80;;;;;;5009956;28;20388;-75
2023/03/06 08:09:55;;;;;;;48.75;24.20;;;5.00;60.50;;;;;;5010710;28;20403;-73
2023/03/06 08:12:21;;;;;;;60.45;25.70;;;5.00;61.10;;;;;;5010829;28;20396;-73
2023/03/06 08:14:46;;;;;;;51.90;25.30;;;5.00;59.50;;;;;;5010927;28;20409;-73
2023/03/06 08:17:12;;;;;;;51.08;25.20;;;5.00;60.90;;;;;;5011275;28;20499;-73
2023/03/06 08:19:38;;;;;;;49.95;25.42;;;5.00;59.80;;;;;;5010841;28;20922;-73
2023/03/06 08:22:06;;;;;;;55.73;27.17;;;5.10;59.80;;;;;;5029021;28;20425;-73
2023/03/06 08:24:33;;;;;;;50.58;27.25;;;5.20;58.90;;;;;;5029875;28;20383;-73
2023/03/06 08:26:59;;;;;;;53.28;27.13;;;5.40;59.90;;;;;;5013009;28;20855;-74
2023/03/06 08:29:25;;;;;;;50.60;27.30;;;5.60;59.10;;;;;;5010841;28;20420;-74
2023/03/06 08:31:51;;;;;;;56.70;29.13;;;5.80;57.90;;;;;;5010102;28;20412;-73
2023/03/06 08:34:19;;;;;;;59.78;27.98;;;6.00;55.50;;;;;;4990821;28;20390;-74
2023/03/06 08:36:45;;;;;;;63.20;29.20;;;6.10;51.60;;;;;;5015526;28;20410;-73
2023/03/06 08:39:11;;;;;;;70.90;32.92;;;6.10;51.30;;;;;;4993740;28;20917;-73
2023/03/06 08:41:37;;;;;;;66.63;32.45;;;6.10;51.50;;;;;;5007601;28;20475;-73
2023/03/06 08:44:03;;;;;;;61.97;32.37;;;6.10;52.50;;;;;;5005162;28;20911;-73
2023/03/06 08:46:31;;;;;;;66.13;33.88;;;6.10;53.00;;;;;;5008323;28;20777;-73
2023/03/06 08:48:57;;;;;;;67.53;32.15;;;5.90;55.00;;;;;;5020155;28;20403;-73
2023/03/06 08:51:23;;;;;;;65.00;31.55;;;5.90;52.20;;;;;;5013412;28;20395;-72
2023/03/06 08:53:50;;;;;;;62.45;30.48;;;5.90;52.40;;;;;;5012534;28;20754;-72
2023/03/06 08:56:16;;;;;;;68.57;33.25;;;5.90;51.60;;;;;;5009255;28;20393;-72
2023/03/06 08:58:42;;;;;;;67.97;34.17;;;5.80;52.50;;;;;;5008899;28;20428;-72
2023/03/06 09:01:21;;;;;;;65.18;32.28;;;5.90;55.20;;;;;;5009051;28;20496;-73
2023/03/06 09:03:47;;;;;;;68.75;34.33;;;6.00;52.20;;;;;;5008998;28;20393;-72
2023/03/06 09:06:13;;;;;;;61.65;31.70;;;6.10;53.50;;;;;;5010573;28;20408;-72
2023/03/06 09:08:41;;;;;;;63.20;31.95;;;6.20;51.00;;;;;;5012492;28;20854;-73
2023/03/06 09:11:08;;;;;;;60.10;29.98;;;6.00;53.00;;;;;;5024624;28;20435;-71
2023/03/06 09:13:34;;;;;;;61.63;30.83;;;6.00;51.30;;;;;;5023363;28;20420;-72
2023/03/06 09:15:59;;;;;;;58.87;30.40;;;5.90;53.10;;;;;;5033608;28;20809;-73
2023/03/06 09:18:25;;;;;;;60.20;29.93;;;5.80;54.20;;;;;;5029649;28;20502;-72
2023/03/06 09:20:50;;;;;;;56.60;28.70;;;5.70;53.90;;;;;;5030723;28;20467;-72
2023/03/06 09:23:16;;;;;;;59.67;29.00;;;5.60;53.90;;;;;;5032034;28;20533;-72
2023/03/06 09:25:41;;;;;;;54.08;27.40;;;5.60;55.70;;;;;;5030654;28;20436;-73
2023/03/06 09:28:07;;;;;;;55.78;29.20;;;5.60;55.30;;;;;;5031496;28;20391;-73
2023/03/06 09:30:32;;;;;;;59.47;28.80;;;5.50;56.90;;;;;;5031216;28;20390;-72
2023/03/06 09:32:58;;;;;;;57.33;28.60;;;5.60;57.90;;;;;;5030675;28;20387;-72
2023/03/06 09:35:23;;;;;;;62.25;30.27;;;5.80;53.90;;;;;;5031533;28;20398;-72
2023/03/06 09:37:49;;;;;;;58.53;29.60;;;6.10;52.60;;;;;;5030898;28;20411;-72
2023/03/06 09:40:30;;;;;;;56.83;29.10;;;6.20;51.70;;;;;;5030638;28;20482;-71
2023/03/06 09:42:56;;;;;;;62.13;29.27;;;6.50;48.40;;;;;;5030736;28;20405;-72
2023/03/06 09:45:21;;;;;;;56.15;27.75;;;6.50;47.50;;;;;;5030409;28;20475;-72
2023/03/06 09:48:03;;;;;;;60.23;28.20;;;6.50;48.20;;;;;;5030002;28;20874;-72
2023/03/06 09:50:43;;;;;;;52.73;27.90;;;6.30;49.00;;;;;;5030510;28;20383;-71
2023/03/06 09:53:37;;;;;;;58.35;27.85;;;6.30;49.90;;;;;;5012713;28;20391;-71
2023/03/06 09:56:10;;;;;;;56.80;28.13;;;6.20;50.50;;;;;;5030684;28;20756;-73
2023/03/06 09:58:56;;;;;;;46.35;23.50;;;5.90;53.70;;;;;;5030229;28;20385;-71
2023/03/06 10:01:27;;;;;;;46.80;24.48;;;5.70;54.30;;;;;;5032772;28;20379;-72
2023/03/06 10:04:10;;;;;;;52.25;25.42;;;5.70;55.00;;;;;;5018513;28;20383;-73
2023/03/06 10:06:48;;;;;;;50.47;26.30;;;5.60;56.00;;;;;;5033683;28;20414;-73
2023/03/06 10:09:25;;;;;;;50.60;26.67;;;5.70;55.90;;;;;;5033661;28;20587;-72
2023/03/06 10:11:51;;;;;;;47.50;25.13;;;5.80;56.40;;;;;;5031744;28;20383;-72
2023/03/06 10:14:31;;;;;;;49.30;25.53;;;6.00;53.50;;;;;;5030876;28;20521;-72
2023/03/06 10:16:57;;;;;;;47.40;24.15;;;6.10;52.90;;;;;;5030166;28;20394;-72
2023/03/06 10:19:32;;;;;;;44.40;21.47;;;6.30;50.70;;;;;;5030341;28;20403;-71
2023/03/06 10:22:16;;;;;;;42.03;22.65;;;6.40;49.10;;;;;;5029799;28;20376;-71
2023/03/06 10:25:15;;;;;;;41.03;21.55;;;6.60;48.60;;;;;;5029872;28;20410;-72
2023/03/06 10:28:14;;;;;;;44.10;21.77;;;6.60;47.20;;;;;;5029452;28;20424;-72
2023/03/06 10:31:08;;;;;;;41.15;22.15;;;6.40;48.70;;;;;;5033863;28;20390;-72
2023/03/06 10:33:39;;;;;;;42.25;21.95;;;6.40;48.80;;;;;;5033409;28;20386;-72
2023/03/06 10:36:05;;;;;;;42.70;22.27;;;6.40;48.30;;;;;;5033451;28;20398;-73
2023/03/06 10:38:37;;;;;;;40.23;21.30;;;6.50;49.00;;;;;;5033137;28;20880;-73
2023/03/06 10:41:11;;;;;;;42.88;22.00;;;6.50;46.80;;;;;;5033153;28;20764;-72
2023/03/06 10:43:44;;;;;;;40.47;20.60;;;6.50;47.90;;;;;;5033372;28;20450;-71
2023/03/06 10:46:45;;;;;;;35.78;20.40;;;6.50;47.80;;;;;;5015598;28;20764;-73
2023/03/06 10:49:34;;;;;;;35.83;20.85;;;6.50;48.30;;;;;;5032706;28;20923;-72
2023/03/06 10:52:20;;;;;;;34.60;18.70;;;6.30;50.90;;;;;;5033213;28;20386;-71
2023/03/06 10:54:47;;;;;;;35.75;19.35;;;6.10;53.00;;;;;;5033265;28;20438;-72
2023/03/06 10:57:28;;;;;;;32.90;18.70;;;6.10;54.30;;;;;;5033149;28;20899;-73
2023/03/06 11:00:03;;;;;;;33.92;19.48;;;5.90;53.70;;;;;;5033077;28;20912;-71
2023/03/06 11:02:39;;;;;;;40.38;21.15;;;5.80;55.10;;;;;;5037451;28;20889;-72
2023/03/06 11:05:17;;;;;;;40.42;20.98;;;5.80;55.90;;;;;;5042663;28;20445;-72
2023/03/06 11:07:55;;;;;;;42.25;21.75;;;5.90;54.40;;;;;;5038258;28;20402;-72
2023/03/06 11:10:22;;;;;;;41.15;22.70;;;5.90;55.00;;;;;;5038577;28;20383;-72
2023/03/06 11:13:06;;;;;;;47.23;24.20;;;6.10;54.60;;;;;;5039043;28;20433;-72
2023/03/06 11:15:32;;;;;;;43.65;23.08;;;6.30;52.10;;;;;;5033495;28;20390;-72
2023/03/06 11:18:08;;;;;;;42.45;23.20;;;6.30;52.00;;;;;;5033199;28;20395;-71
2023/03/06 11:20:45;;;;;;;41.88;23.92;;;6.30;51.70;;;;;;5033007;28;20394;-72
2023/03/06 11:23:16;;;;;;;45.90;22.67;;;6.20;51.50;;;;;;5032647;28;20381;-71
2023/03/06 11:26:01;;;;;;;44.05;23.35;;;6.10;52.40;;;;;;5032666;28;20486;-71
2023/03/06 11:28:36;;;;;;;41.47;22.85;;;6.10;53.10;;;;;;5032058;28;20474;-71
2023/03/06 11:31:15;;;;;;;42.70;21.73;;;6.00;52.90;;;;;;5015356;28;20387;-72
2023/03/06 11:34:00;;;;;;;44.33;23.23;;;6.00;52.60;;;;;;5032576;28;20391;-71
2023/03/06 11:37:05;;;;;;;44.28;24.15;;;6.10;53.10;;;;;;5032416;28;20386;-72
2023/03/06 11:39:46;;;;;;;39.33;20.95;;;6.20;52.70;;;;;;5031305;28;20464;-72
2023/03/06 11:42:31;;;;;;;42.70;21.80;;;6.40;46.90;;;;;;5033026;28;20785;-71
2023/03/06 11:45:30;;;;;;;40.95;21.77;;;6.40;44.60;;;;;;5014583;28;20405;-73
2023/03/06 11:48:15;;;;;;;43.27;23.13;;;6.20;46.20;;;;;;5016948;28;20391;-73
2023/03/06 11:50:52;;;;;;;46.03;22.30;;;6.10;47.70;;;;;;5032009;28;20385;-72
2023/03/06 11:53:21;;;;;;;39.95;21.90;;;6.10;47.80;;;;;;5032355;28;20545;-71
2023/03/06 11:55:56;;;;;;;39.83;22.03;;;6.30;46.70;;;;;;5033004;28;20380;-71
2023/03/06 11:58:58;;;;;;;39.42;21.58;;;6.40;46.10;;;;;;5032101;28;20383;-71
2023/03/06 12:01:40;;;;;;;39.28;21.58;;;6.50;43.10;;;;;;5013966;28;20410;-72
2023/03/06 12:04:33;;;;;;;38.33;20.77;;;6.70;41.90;;;;;;5031815;28;20533;-72
2023/03/06 12:07:12;;;;;;;33.25;17.67;;;6.90;39.20;;;;;;5031822;28;20743;-73
2023/03/06 12:10:04;;;;;;;38.88;21.15;;;7.00;36.00;;;;;;5031874;28;20386;-73
2023/03/06 12:12:29;;;;;;;36.08;19.73;;;7.40;37.30;;;;;;5031750;28;20376;-71
2023/03/06 12:15:33;;;;;;;38.13;20.77;;;7.50;36.80;;;;;;5014113;28;20398;-73
2023/03/06 12:18:20;;;;;;;37.67;21.20;;;7.50;37.40;;;;;;5031730;28;20381;-72
2023/03/06 12:20:55;;;;;;;32.85;19.05;;;7.50;38.00;;;;;;5031637;28;20800;-71
2023/03/06 12:23:39;;;;;;;30.02;17.55;;;7.80;32.30;;;;;;5032261;28;20394;-72
2023/03/06 12:26:35;;;;;;;33.30;18.17;;;7.80;31.10;;;;;;5031499;28;20398;-72
2023/03/06 12:29:15;;;;;;;31.50;18.00;;;7.80;32.60;;;;;;5032182;28;20876;-72
2023/03/06 12:31:43;;;;;;;30.38;17.42;;;7.80;31.00;;;;;;5031539;28;20377;-74
2023/03/06 12:34:40;;;;;;;32.97;17.58;;;7.70;30.60;;;;;;5031692;28;20437;-74
2023/03/06 12:37:35;;;;;;;31.33;16.90;;;7.60;31.90;;;;;;5031504;28;20470;-73
2023/03/06 12:40:34;;;;;;;35.63;16.80;;;7.40;32.00;;;;;;5031448;28;20404;-72
2023/03/06 12:43:12;;;;;;;28.90;16.75;;;7.40;33.40;;;;;;5031168;28;20396;-73
2023/03/06 12:45:37;;;;;;;33.25;18.25;;;7.60;33.80;;;;;;5031571;28;20791;-73
2023/03/06 12:48:13;;;;;;;29.63;17.03;;;7.70;34.20;;;;;;5031318;28;20422;-73
2023/03/06 12:50:43;;;;;;;36.20;20.10;;;8.00;33.10;;;;;;5031241;28;20386;-72